Prestations.

Choisissez la prestation de votre choix.

Initiation.

Évènement client.

Formations.

METAR :

LFQA 122030Z AUTO 02009KT CAVOK 19/08 Q1024


vue en direct sur l'aérodrome
mentions légales politique de confidentialité
Cochet Concept
cx